Time;durP1;ratioP1;P1;durP2;ratioP2;P2;SDS_P1;SDS_P2;PMS_P1;PMS_P2;Temp;Humidity;BMP_temperature;BMP_pressure;BME280_temperature;BME280_humidity;BME280_pressure;Samples;Min_cycle;Max_cycle;Signal;HPM_P1;HPM_P2
2023/03/11 00:00:15;;;;;;;2.03;0.80;;;;;;;;;;4994188;28;20026;-76
2023/03/11 00:03:02;;;;;;;1.50;0.70;;;;;;;;;;4986064;28;20051;-75
2023/03/11 00:05:47;;;;;;;1.70;0.80;;;;;;;;;;4985531;28;20033;-76
2023/03/11 00:08:33;;;;;;;1.80;0.80;;;;;;;;;;4975511;28;20366;-76
2023/03/11 00:11:18;;;;;;;1.15;1.02;;;;;;;;;;4979856;28;20053;-77
2023/03/11 00:14:03;;;;;;;0.75;0.75;;;;;;;;;;4975218;28;20030;-71
2023/03/11 00:16:49;;;;;;;2.10;0.90;;;;;;;;;;4983483;28;20040;-74
2023/03/11 00:19:34;;;;;;;1.02;0.90;;;;;;;;;;5005970;28;20507;-72
2023/03/11 00:22:19;;;;;;;2.30;0.70;;;;;;;;;;4996269;28;20040;-72
2023/03/11 00:25:05;;;;;;;0.75;0.70;;;;;;;;;;4986455;28;20041;-73
2023/03/11 00:27:50;;;;;;;1.55;1.10;;;;;;;;;;4995000;28;20036;-72
2023/03/11 00:30:35;;;;;;;1.23;1.10;;;;;;;;;;4994255;28;20038;-71
2023/03/11 00:33:20;;;;;;;1.98;0.93;;;;;;;;;;5012625;28;20026;-74
2023/03/11 00:36:06;;;;;;;1.67;0.90;;;;;;;;;;4975138;28;20029;-77
2023/03/11 00:38:51;;;;;;;2.13;1.00;;;;;;;;;;5018131;28;20044;-76
2023/03/11 00:41:36;;;;;;;1.80;1.10;;;;;;;;;;4993684;28;20025;-77
2023/03/11 00:44:22;;;;;;;3.20;1.20;;;;;;;;;;4994383;28;20041;-77
2023/03/11 00:47:08;;;;;;;2.05;1.08;;;;;;;;;;4979660;28;20109;-76
2023/03/11 00:49:53;;;;;;;1.55;0.98;;;;;;;;;;4937373;28;20384;-76
2023/03/11 00:52:38;;;;;;;2.35;0.95;;;;;;;;;;4925364;28;20076;-73
2023/03/11 00:55:25;;;;;;;2.55;1.00;;;;;;;;;;4936399;28;20039;-73
2023/03/11 00:58:11;;;;;;;1.42;1.15;;;;;;;;;;4924294;29;20676;-73
2023/03/11 01:00:56;;;;;;;4.07;1.02;;;;;;;;;;4948779;28;20678;-73
2023/03/11 01:03:42;;;;;;;1.08;0.98;;;;;;;;;;4951442;28;20094;-73
2023/03/11 01:06:27;;;;;;;2.13;0.80;;;;;;;;;;4951427;28;20371;-72
2023/03/11 01:09:12;;;;;;;4.78;1.17;;;;;;;;;;4954790;28;20586;-74
2023/03/11 01:11:57;;;;;;;1.58;0.90;;;;;;;;;;4929006;29;20133;-73
2023/03/11 01:14:43;;;;;;;2.78;1.30;;;;;;;;;;4950909;28;20136;-75
2023/03/11 01:17:28;;;;;;;1.90;1.20;;;;;;;;;;4950767;28;20411;-74
2023/03/11 01:20:13;;;;;;;1.55;0.95;;;;;;;;;;4964943;28;20046;-75
2023/03/11 01:22:58;;;;;;;2.25;1.13;;;;;;;;;;4999624;28;20041;-74
2023/03/11 01:25:44;;;;;;;1.98;1.13;;;;;;;;;;4961098;28;20120;-73
2023/03/11 01:28:29;;;;;;;1.92;1.00;;;;;;;;;;4985251;28;20512;-73
2023/03/11 01:31:14;;;;;;;2.70;1.38;;;;;;;;;;4984109;28;20033;-74
2023/03/11 01:33:59;;;;;;;3.65;0.82;;;;;;;;;;5005713;28;20033;-76
2023/03/11 01:36:44;;;;;;;2.92;1.23;;;;;;;;;;4995546;28;20034;-75
2023/03/11 01:39:30;;;;;;;3.42;1.10;;;;;;;;;;4991511;28;20057;-75
2023/03/11 01:42:15;;;;;;;1.65;0.95;;;;;;;;;;4998039;28;20552;-74
2023/03/11 01:45:00;;;;;;;1.92;1.20;;;;;;;;;;4991652;28;20041;-75
2023/03/11 01:47:45;;;;;;;1.58;1.10;;;;;;;;;;4997109;28;20167;-74
2023/03/11 01:50:33;;;;;;;1.88;1.58;;;;;;;;;;4983210;28;20040;-76
2023/03/11 01:53:18;;;;;;;2.00;1.20;;;;;;;;;;4995474;28;20069;-74
2023/03/11 01:56:04;;;;;;;3.22;1.92;;;;;;;;;;4988666;28;20030;-74
2023/03/11 01:58:51;;;;;;;1.38;1.10;;;;;;;;;;4986238;28;20073;-74
2023/03/11 02:01:40;;;;;;;2.92;0.95;;;;;;;;;;4990325;28;20042;-76
2023/03/11 02:04:27;;;;;;;3.72;1.30;;;;;;;;;;4996332;28;20539;-72
2023/03/11 02:07:13;;;;;;;2.55;1.17;;;;;;;;;;4989866;28;20058;-77
2023/03/11 02:09:58;;;;;;;3.30;1.30;;;;;;;;;;4982085;28;20025;-74
2023/03/11 02:12:44;;;;;;;4.43;1.40;;;;;;;;;;4999034;28;20480;-74
2023/03/11 02:15:30;;;;;;;1.30;1.00;;;;;;;;;;4996939;28;20045;-74
2023/03/11 02:18:19;;;;;;;1.25;0.80;;;;;;;;;;4981287;28;20026;-72
2023/03/11 02:21:07;;;;;;;12.50;1.30;;;;;;;;;;4996158;28;20069;-73
2023/03/11 02:23:55;;;;;;;1.77;1.30;;;;;;;;;;4982859;28;20671;-76
2023/03/11 02:26:55;;;;;;;3.30;1.20;;;;;;;;;;4981512;28;20508;-72
2023/03/11 02:29:42;;;;;;;3.33;1.20;;;;;;;;;;4979797;28;20481;-73
2023/03/11 02:32:27;;;;;;;3.30;1.10;;;;;;;;;;4994078;28;20103;-75
2023/03/11 02:35:13;;;;;;;1.40;1.08;;;;;;;;;;4982908;28;20042;-73
2023/03/11 02:37:58;;;;;;;4.40;1.00;;;;;;;;;;4996087;28;20034;-73
2023/03/11 02:41:00;;;;;;;1.17;0.75;;;;;;;;;;4993988;28;20064;-73
2023/03/11 02:43:45;;;;;;;3.35;1.15;;;;;;;;;;4975408;28;20489;-73
2023/03/11 02:46:31;;;;;;;1.73;0.93;;;;;;;;;;5002390;28;20496;-72
2023/03/11 02:49:17;;;;;;;5.13;0.90;;;;;;;;;;4995915;28;20325;-73
2023/03/11 02:52:02;;;;;;;1.05;0.90;;;;;;;;;;4978914;28;20499;-74
2023/03/11 02:54:48;;;;;;;2.05;1.65;;;;;;;;;;4995719;28;20045;-72
2023/03/11 02:57:33;;;;;;;5.35;1.20;;;;;;;;;;4995212;28;20366;-72
2023/03/11 03:00:18;;;;;;;3.20;1.48;;;;;;;;;;4976455;28;20038;-74
2023/03/11 03:03:03;;;;;;;4.32;1.10;;;;;;;;;;4968130;28;20469;-72
2023/03/11 03:05:49;;;;;;;3.55;1.30;;;;;;;;;;4992588;28;20038;-74
2023/03/11 03:08:34;;;;;;;2.33;1.02;;;;;;;;;;4993854;28;20064;-75
2023/03/11 03:11:19;;;;;;;3.42;1.33;;;;;;;;;;4979215;28;20030;-73
2023/03/11 03:14:04;;;;;;;5.40;1.20;;;;;;;;;;4995906;28;20032;-72
2023/03/11 03:16:50;;;;;;;1.98;0.98;;;;;;;;;;4987275;28;20372;-73
2023/03/11 03:19:35;;;;;;;2.42;0.95;;;;;;;;;;4997142;28;20076;-75
2023/03/11 03:22:20;;;;;;;4.20;1.33;;;;;;;;;;4990023;28;20125;-73
2023/03/11 03:25:06;;;;;;;2.40;1.08;;;;;;;;;;4992987;28;20395;-72
2023/03/11 03:27:51;;;;;;;3.25;1.25;;;;;;;;;;4990568;28;20026;-72
2023/03/11 03:30:37;;;;;;;2.95;1.08;;;;;;;;;;5009068;28;20132;-72
2023/03/11 03:33:22;;;;;;;3.97;1.13;;;;;;;;;;4994513;28;20806;-71
2023/03/11 03:36:08;;;;;;;4.25;1.05;;;;;;;;;;4974181;28;20317;-73
2023/03/11 03:38:54;;;;;;;3.25;0.80;;;;;;;;;;4992594;28;20038;-72
2023/03/11 03:41:40;;;;;;;1.45;1.35;;;;;;;;;;5007309;28;20076;-78
2023/03/11 03:44:25;;;;;;;4.97;1.33;;;;;;;;;;4976508;28;20076;-75
2023/03/11 03:47:10;;;;;;;3.47;1.10;;;;;;;;;;4995609;28;20418;-77
2023/03/11 03:49:56;;;;;;;3.05;1.05;;;;;;;;;;4995014;28;20037;-77
2023/03/11 03:52:41;;;;;;;2.25;0.88;;;;;;;;;;4986922;28;20474;-78
2023/03/11 03:55:26;;;;;;;3.30;1.42;;;;;;;;;;4974814;28;20095;-76
2023/03/11 03:58:12;;;;;;;5.07;1.20;;;;;;;;;;4979641;28;20469;-74
2023/03/11 04:00:57;;;;;;;2.38;0.80;;;;;;;;;;4980491;28;20040;-73
2023/03/11 04:03:42;;;;;;;2.55;0.88;;;;;;;;;;4995876;28;20061;-76
2023/03/11 04:06:28;;;;;;;2.15;0.98;;;;;;;;;;4994653;28;20481;-73
2023/03/11 04:09:13;;;;;;;3.40;1.27;;;;;;;;;;4996450;28;20030;-73
2023/03/11 04:12:01;;;;;;;1.75;0.88;;;;;;;;;;4996239;28;20267;-73
2023/03/11 04:14:47;;;;;;;3.45;1.00;;;;;;;;;;4969935;28;20033;-73
2023/03/11 04:17:32;;;;;;;3.00;1.20;;;;;;;;;;5002390;28;20037;-75
2023/03/11 04:20:18;;;;;;;2.55;1.00;;;;;;;;;;5005448;28;20031;-75
2023/03/11 04:23:03;;;;;;;1.92;0.95;;;;;;;;;;4996237;28;20030;-77
2023/03/11 04:25:48;;;;;;;3.78;1.13;;;;;;;;;;4988498;28;20486;-75
2023/03/11 04:28:33;;;;;;;3.10;0.90;;;;;;;;;;4986660;28;20072;-76
2023/03/11 04:31:19;;;;;;;1.92;0.93;;;;;;;;;;4996259;28;20087;-72
2023/03/11 04:34:04;;;;;;;1.60;0.90;;;;;;;;;;4976438;28;20105;-76
2023/03/11 04:36:53;;;;;;;3.47;1.15;;;;;;;;;;4958885;28;20057;-72
2023/03/11 04:39:38;;;;;;;3.10;1.07;;;;;;;;;;4980955;28;20646;-73
2023/03/11 04:42:23;;;;;;;6.22;1.10;;;;;;;;;;5013750;28;20865;-74
2023/03/11 04:45:10;;;;;;;2.72;1.10;;;;;;;;;;4988970;28;20030;-73
2023/03/11 04:47:55;;;;;;;1.83;1.10;;;;;;;;;;5006563;28;20037;-77
2023/03/11 04:50:40;;;;;;;2.58;1.17;;;;;;;;;;4971995;28;20033;-73
2023/03/11 04:53:25;;;;;;;2.83;1.10;;;;;;;;;;5014614;28;20383;-76
2023/03/11 04:56:10;;;;;;;4.88;1.15;;;;;;;;;;4988578;28;20042;-77
2023/03/11 04:58:56;;;;;;;2.40;1.10;;;;;;;;;;4980461;28;20046;-77
2023/03/11 05:01:41;;;;;;;6.03;1.20;;;;;;;;;;4973666;28;20026;-77
2023/03/11 05:04:26;;;;;;;3.38;1.55;;;;;;;;;;4983898;28;20033;-78
2023/03/11 05:07:13;;;;;;;5.00;1.42;;;;;;;;;;4980723;28;20045;-78
2023/03/11 05:09:58;;;;;;;2.40;1.10;;;;;;;;;;5007988;28;20077;-76
2023/03/11 05:12:43;;;;;;;5.13;1.05;;;;;;;;;;5000783;28;20041;-76
2023/03/11 05:15:30;;;;;;;2.80;1.67;;;;;;;;;;4993038;28;20628;-75
2023/03/11 05:18:15;;;;;;;2.92;0.80;;;;;;;;;;4983208;28;20034;-73
2023/03/11 05:21:00;;;;;;;4.22;1.08;;;;;;;;;;4982875;28;20037;-73
2023/03/11 05:23:45;;;;;;;2.20;1.20;;;;;;;;;;4979349;28;20038;-74
2023/03/11 05:26:31;;;;;;;3.08;0.82;;;;;;;;;;4989812;28;20500;-75
2023/03/11 05:29:16;;;;;;;4.20;1.20;;;;;;;;;;4978673;28;20382;-74
2023/03/11 05:32:01;;;;;;;3.20;1.40;;;;;;;;;;4997417;28;20037;-76
2023/03/11 05:34:47;;;;;;;3.03;1.17;;;;;;;;;;4992754;28;20021;-77
2023/03/11 05:37:32;;;;;;;2.63;1.00;;;;;;;;;;4980480;28;20085;-78
2023/03/11 05:40:18;;;;;;;1.83;0.80;;;;;;;;;;4983949;28;20030;-77
2023/03/11 05:43:03;;;;;;;2.47;1.02;;;;;;;;;;4995458;28;20025;-76
2023/03/11 05:45:48;;;;;;;3.58;1.00;;;;;;;;;;4991257;28;20504;-77
2023/03/11 05:48:35;;;;;;;2.40;1.17;;;;;;;;;;4981976;28;20045;-72
2023/03/11 05:51:20;;;;;;;4.78;1.17;;;;;;;;;;4994557;28;20037;-73
2023/03/11 05:54:13;;;;;;;1.05;0.85;;;;;;;;;;5002937;28;20129;-73
2023/03/11 05:56:58;;;;;;;2.28;1.45;;;;;;;;;;5002033;28;20026;-72
2023/03/11 05:59:44;;;;;;;5.82;1.30;;;;;;;;;;4996269;28;20026;-73
2023/03/11 06:02:29;;;;;;;3.47;0.95;;;;;;;;;;4992879;28;20485;-72
2023/03/11 06:05:14;;;;;;;3.53;1.23;;;;;;;;;;4996028;28;20038;-74
2023/03/11 06:08:00;;;;;;;6.60;1.40;;;;;;;;;;4985539;28;20062;-72
2023/03/11 06:10:45;;;;;;;1.52;0.93;;;;;;;;;;4993211;28;20037;-72
2023/03/11 06:13:30;;;;;;;4.72;1.75;;;;;;;;;;5004961;28;20113;-72
2023/03/11 06:16:15;;;;;;;2.13;1.60;;;;;;;;;;4999986;28;20076;-71
2023/03/11 06:19:01;;;;;;;6.93;1.80;;;;;;;;;;4996708;28;20409;-72
2023/03/11 06:21:46;;;;;;;5.97;1.38;;;;;;;;;;4995170;28;20416;-74
2023/03/11 06:24:32;;;;;;;4.32;1.10;;;;;;;;;;4983261;28;20038;-74
2023/03/11 06:27:17;;;;;;;2.30;1.13;;;;;;;;;;4978806;28;20139;-73
2023/03/11 06:30:02;;;;;;;7.10;1.90;;;;;;;;;;5006658;28;20100;-74
2023/03/11 06:32:48;;;;;;;2.60;1.10;;;;;;;;;;5008258;28;20060;-76
2023/03/11 06:35:34;;;;;;;2.72;0.95;;;;;;;;;;4995394;28;20073;-75
2023/03/11 06:38:19;;;;;;;1.75;1.23;;;;;;;;;;5007386;28;20026;-75
2023/03/11 06:41:05;;;;;;;9.23;1.50;;;;;;;;;;4989158;28;20421;-77
2023/03/11 06:43:50;;;;;;;6.13;1.25;;;;;;;;;;4993365;28;20037;-74
2023/03/11 06:46:35;;;;;;;2.70;1.10;;;;;;;;;;4992754;28;20062;-72
2023/03/11 06:49:21;;;;;;;3.90;1.27;;;;;;;;;;4996025;28;20034;-74
2023/03/11 06:52:07;;;;;;;3.25;1.20;;;;;;;;;;5001678;28;20026;-73
2023/03/11 06:54:52;;;;;;;3.25;1.00;;;;;;;;;;4998300;28;20053;-75
2023/03/11 06:57:37;;;;;;;16.63;2.67;;;;;;;;;;5006645;28;20021;-75
2023/03/11 07:00:22;;;;;;;5.35;1.77;;;;;;;;;;4996578;28;20044;-76
2023/03/11 07:03:07;;;;;;;4.93;1.00;;;;;;;;;;4976956;28;20046;-74
2023/03/11 07:05:53;;;;;;;3.55;1.10;;;;;;;;;;4974901;28;20124;-72
2023/03/11 07:08:38;;;;;;;7.28;1.33;;;;;;;;;;4988391;28;20504;-73
2023/03/11 07:11:25;;;;;;;3.60;1.52;;;;;;;;;;4989344;28;20540;-73
2023/03/11 07:14:10;;;;;;;3.88;1.20;;;;;;;;;;4983065;28;20030;-75
2023/03/11 07:16:56;;;;;;;10.85;1.48;;;;;;;;;;4986013;28;20026;-77
2023/03/11 07:19:41;;;;;;;4.63;1.20;;;;;;;;;;4975634;28;20041;-75
2023/03/11 07:22:26;;;;;;;6.03;1.30;;;;;;;;;;4994175;28;20034;-73
2023/03/11 07:25:11;;;;;;;7.70;1.20;;;;;;;;;;4995340;28;20033;-71
2023/03/11 07:27:56;;;;;;;3.58;1.38;;;;;;;;;;4983463;28;20038;-74
2023/03/11 07:30:45;;;;;;;6.43;2.38;;;;;;;;;;4979096;28;20508;-74
2023/03/11 07:33:30;;;;;;;4.32;1.48;;;;;;;;;;4995188;28;20049;-75
2023/03/11 07:36:17;;;;;;;3.67;1.23;;;;;;;;;;5006205;28;20034;-76
2023/03/11 07:39:04;;;;;;;7.40;1.48;;;;;;;;;;4993972;28;20040;-76
2023/03/11 07:41:49;;;;;;;3.72;1.30;;;;;;;;;;4980220;28;20680;-75
2023/03/11 07:44:34;;;;;;;3.92;1.10;;;;;;;;;;4993932;28;20032;-75
2023/03/11 07:47:19;;;;;;;4.85;1.70;;;;;;;;;;5006898;28;20101;-77
2023/03/11 07:50:05;;;;;;;5.22;1.50;;;;;;;;;;4987960;28;20038;-76
2023/03/11 07:52:50;;;;;;;4.68;2.08;;;;;;;;;;4978409;28;20555;-76
2023/03/11 07:55:35;;;;;;;6.43;1.80;;;;;;;;;;5001986;28;20044;-74
2023/03/11 07:58:20;;;;;;;6.28;1.63;;;;;;;;;;5012879;28;20103;-74
2023/03/11 08:01:09;;;;;;;4.43;1.35;;;;;;;;;;5004438;28;20116;-74
2023/03/11 08:03:56;;;;;;;9.13;1.70;;;;;;;;;;4980042;28;20041;-74
2023/03/11 08:06:43;;;;;;;5.22;1.33;;;;;;;;;;5006998;28;20022;-72
2023/03/11 08:09:28;;;;;;;5.90;1.63;;;;;;;;;;4998597;28;20070;-72
2023/03/11 08:12:14;;;;;;;4.10;1.23;;;;;;;;;;4982452;28;20505;-74
2023/03/11 08:14:59;;;;;;;6.30;1.88;;;;;;;;;;4994462;28;20038;-73
2023/03/11 08:17:44;;;;;;;3.90;1.38;;;;;;;;;;4996426;28;20527;-74
2023/03/11 08:20:29;;;;;;;6.57;1.80;;;;;;;;;;5007993;28;20029;-73
2023/03/11 08:23:15;;;;;;;4.13;1.63;;;;;;;;;;4993560;28;20030;-75
2023/03/11 08:26:04;;;;;;;6.55;1.30;;;;;;;;;;4994876;28;20489;-73
2023/03/11 08:28:50;;;;;;;5.18;1.42;;;;;;;;;;4976438;28;20042;-75
2023/03/11 08:31:35;;;;;;;6.50;1.30;;;;;;;;;;4994303;28;20050;-74
2023/03/11 08:34:21;;;;;;;6.45;1.30;;;;;;;;;;4997302;28;20116;-72
2023/03/11 08:37:06;;;;;;;6.90;1.52;;;;;;;;;;4995037;28;20030;-73
2023/03/11 08:39:51;;;;;;;3.83;1.58;;;;;;;;;;4996693;28;20076;-72
2023/03/11 08:42:37;;;;;;;3.25;1.10;;;;;;;;;;4993909;28;20037;-75
2023/03/11 08:45:22;;;;;;;4.55;1.10;;;;;;;;;;4990232;28;20034;-76
2023/03/11 08:48:09;;;;;;;5.82;1.67;;;;;;;;;;4990572;28;20022;-76
2023/03/11 08:50:55;;;;;;;5.10;1.30;;;;;;;;;;4992282;28;20077;-73
2023/03/11 08:53:40;;;;;;;3.90;1.27;;;;;;;;;;5001551;28;20118;-74
2023/03/11 08:56:25;;;;;;;7.20;1.38;;;;;;;;;;4994371;28;20068;-74
2023/03/11 08:59:11;;;;;;;5.18;1.75;;;;;;;;;;4991109;28;20031;-74
2023/03/11 09:01:56;;;;;;;3.70;1.15;;;;;;;;;;4994519;28;20116;-74
2023/03/11 09:04:41;;;;;;;5.18;1.30;;;;;;;;;;4986121;28;20046;-75
2023/03/11 09:07:26;;;;;;;2.65;1.15;;;;;;;;;;5000496;28;20477;-73
2023/03/11 09:10:13;;;;;;;4.00;1.40;;;;;;;;;;4989953;28;20026;-76
2023/03/11 09:12:58;;;;;;;4.63;1.52;;;;;;;;;;4978058;28;20030;-73
2023/03/11 09:15:43;;;;;;;5.93;1.30;;;;;;;;;;4996382;28;20093;-72
2023/03/11 09:18:28;;;;;;;3.92;1.30;;;;;;;;;;4995041;28;20117;-76
2023/03/11 09:21:14;;;;;;;4.00;1.63;;;;;;;;;;4996459;28;20117;-74
2023/03/11 09:23:59;;;;;;;6.63;2.17;;;;;;;;;;4996986;28;20425;-73
2023/03/11 09:26:45;;;;;;;5.88;1.45;;;;;;;;;;4994040;28;20037;-74
2023/03/11 09:29:30;;;;;;;2.70;1.10;;;;;;;;;;4995971;28;20457;-76
2023/03/11 09:32:15;;;;;;;3.03;1.15;;;;;;;;;;4994819;28;20057;-75
2023/03/11 09:35:01;;;;;;;3.78;1.45;;;;;;;;;;4996046;28;20025;-76
2023/03/11 09:37:46;;;;;;;3.63;1.35;;;;;;;;;;4992348;28;20042;-75
2023/03/11 09:40:51;;;;;;;4.05;1.60;;;;;;;;;;4999713;28;20097;-75
2023/03/11 09:43:43;;;;;;;4.05;1.35;;;;;;;;;;4972717;28;20038;-77
2023/03/11 09:46:31;;;;;;;5.20;2.05;;;;;;;;;;4991625;28;20038;-73
2023/03/11 09:49:28;;;;;;;4.28;1.30;;;;;;;;;;4996266;28;20033;-73
2023/03/11 09:52:25;;;;;;;4.00;1.33;;;;;;;;;;4988666;28;20036;-74
2023/03/11 09:55:29;;;;;;;3.15;1.17;;;;;;;;;;4994707;28;20036;-74
2023/03/11 09:58:14;;;;;;;4.30;1.40;;;;;;;;;;4996806;28;20038;-74
2023/03/11 10:00:59;;;;;;;9.02;1.90;;;;;;;;;;4994407;28;20052;-74
2023/03/11 10:03:45;;;;;;;4.65;1.52;;;;;;;;;;5002217;28;20430;-76
2023/03/11 10:06:30;;;;;;;4.72;1.45;;;;;;;;;;4998619;28;20041;-71
2023/03/11 10:09:19;;;;;;;4.43;1.60;;;;;;;;;;4993131;28;20042;-71
2023/03/11 10:12:22;;;;;;;4.07;1.27;;;;;;;;;;4993531;28;20131;-74
2023/03/11 10:15:15;;;;;;;4.43;1.23;;;;;;;;;;5002981;28;20049;-73
2023/03/11 10:18:15;;;;;;;3.58;1.60;;;;;;;;;;4995677;28;20029;-74
2023/03/11 10:21:07;;;;;;;4.68;2.13;;;;;;;;;;4991259;28;20034;-76
2023/03/11 10:24:02;;;;;;;1.85;1.00;;;;;;;;;;4995113;28;20226;-75
2023/03/11 10:26:50;;;;;;;6.15;1.73;;;;;;;;;;4991115;28;20576;-75
2023/03/11 10:29:35;;;;;;;3.08;1.55;;;;;;;;;;4995548;28;20048;-75
2023/03/11 10:32:24;;;;;;;4.75;1.60;;;;;;;;;;4996141;28;20030;-75
2023/03/11 10:35:23;;;;;;;6.30;1.58;;;;;;;;;;4996357;28;20030;-77
2023/03/11 10:38:24;;;;;;;4.13;1.25;;;;;;;;;;4983753;28;20554;-74
2023/03/11 10:41:28;;;;;;;6.30;1.23;;;;;;;;;;4998567;28;20092;-75
2023/03/11 10:44:16;;;;;;;4.88;1.20;;;;;;;;;;5002929;28;20285;-73
2023/03/11 10:47:02;;;;;;;4.35;1.50;;;;;;;;;;4999078;28;20025;-73
2023/03/11 10:49:47;;;;;;;4.28;1.15;;;;;;;;;;4999306;28;20044;-75
2023/03/11 10:52:41;;;;;;;3.88;1.20;;;;;;;;;;5008154;28;20531;-73
2023/03/11 10:55:26;;;;;;;3.75;1.65;;;;;;;;;;4997221;28;20042;-74
2023/03/11 10:58:12;;;;;;;4.93;1.33;;;;;;;;;;4985155;28;20381;-73
2023/03/11 11:01:12;;;;;;;4.55;1.70;;;;;;;;;;4976263;28;20496;-72
2023/03/11 11:03:59;;;;;;;3.67;1.38;;;;;;;;;;4985487;28;20088;-72
2023/03/11 11:06:44;;;;;;;4.88;1.50;;;;;;;;;;4991861;28;20472;-73
2023/03/11 11:09:31;;;;;;;4.45;1.10;;;;;;;;;;4985568;28;20032;-72
2023/03/11 11:12:19;;;;;;;2.70;1.20;;;;;;;;;;4994546;28;20619;-73
2023/03/11 11:15:06;;;;;;;4.65;1.15;;;;;;;;;;5003877;28;20072;-73
2023/03/11 11:17:54;;;;;;;3.85;1.20;;;;;;;;;;5008646;28;20092;-74
2023/03/11 11:20:51;;;;;;;3.33;1.10;;;;;;;;;;4981714;28;20064;-74
2023/03/11 11:23:46;;;;;;;2.83;1.25;;;;;;;;;;4980401;28;20042;-74
2023/03/11 11:26:32;;;;;;;6.40;1.50;;;;;;;;;;4968734;28;20034;-77
2023/03/11 11:29:17;;;;;;;1.40;0.80;;;;;;;;;;5008046;28;20072;-75
2023/03/11 11:32:17;;;;;;;3.03;1.27;;;;;;;;;;4974259;28;20497;-77
2023/03/11 11:35:04;;;;;;;3.33;1.40;;;;;;;;;;5006804;28;20145;-76
2023/03/11 11:37:51;;;;;;;4.15;1.17;;;;;;;;;;4998466;28;20033;-71
2023/03/11 11:40:36;;;;;;;4.47;1.20;;;;;;;;;;4992558;28;20049;-72
2023/03/11 11:43:27;;;;;;;5.82;1.40;;;;;;;;;;5006015;28;20038;-74
2023/03/11 11:46:17;;;;;;;2.10;1.30;;;;;;;;;;4997927;28;20064;-72
2023/03/11 11:49:10;;;;;;;2.10;1.23;;;;;;;;;;4997789;28;20317;-73
2023/03/11 11:51:58;;;;;;;6.00;1.40;;;;;;;;;;4973123;28;20061;-73
2023/03/11 11:54:52;;;;;;;4.10;1.40;;;;;;;;;;4990322;28;20138;-74
2023/03/11 11:57:38;;;;;;;3.40;1.10;;;;;;;;;;4992715;28;20037;-73
2023/03/11 12:00:29;;;;;;;2.38;1.23;;;;;;;;;;4994638;28;20060;-74
2023/03/11 12:03:24;;;;;;;4.35;1.10;;;;;;;;;;4996956;28;20621;-74
2023/03/11 12:06:28;;;;;;;7.40;1.60;;;;;;;;;;5001880;28;20022;-73
2023/03/11 12:09:23;;;;;;;4.13;1.33;;;;;;;;;;4985804;28;20113;-73
2023/03/11 12:12:11;;;;;;;4.25;1.05;;;;;;;;;;4990403;28;20032;-75
2023/03/11 12:15:06;;;;;;;1.83;1.10;;;;;;;;;;4982729;28;20070;-73
2023/03/11 12:17:53;;;;;;;5.57;1.02;;;;;;;;;;4987484;28;20041;-76
2023/03/11 12:20:42;;;;;;;3.47;1.20;;;;;;;;;;4999379;28;20044;-72
2023/03/11 12:23:36;;;;;;;2.00;1.23;;;;;;;;;;4995317;28;20038;-75
2023/03/11 12:26:22;;;;;;;3.20;1.45;;;;;;;;;;4988014;28;20044;-74
2023/03/11 12:29:17;;;;;;;3.50;1.00;;;;;;;;;;4993828;28;20044;-75
2023/03/11 12:32:02;;;;;;;4.30;1.42;;;;;;;;;;4995420;28;20461;-73
2023/03/11 12:34:47;;;;;;;3.92;1.00;;;;;;;;;;4991397;28;20034;-74
2023/03/11 12:37:33;;;;;;;3.15;1.67;;;;;;;;;;4977340;28;20069;-75
2023/03/11 12:40:37;;;;;;;4.40;1.20;;;;;;;;;;4995832;28;20484;-74
2023/03/11 12:43:34;;;;;;;1.48;1.00;;;;;;;;;;4981567;28;20030;-74
2023/03/11 12:46:20;;;;;;;3.83;1.20;;;;;;;;;;4994187;28;20107;-74
2023/03/11 12:49:13;;;;;;;2.67;1.45;;;;;;;;;;4983310;28;20236;-75
2023/03/11 12:52:04;;;;;;;2.92;1.20;;;;;;;;;;4999734;28;20021;-77
2023/03/11 12:54:55;;;;;;;5.03;1.58;;;;;;;;;;5000558;28;20026;-76
2023/03/11 12:57:47;;;;;;;2.10;1.08;;;;;;;;;;5002202;28;20034;-76
2023/03/11 13:00:52;;;;;;;2.75;1.10;;;;;;;;;;4996059;28;20417;-76
2023/03/11 13:03:46;;;;;;;3.72;1.15;;;;;;;;;;4997111;28;20030;-76
2023/03/11 13:06:39;;;;;;;3.53;1.30;;;;;;;;;;4995600;28;20042;-76
2023/03/11 13:09:24;;;;;;;4.00;1.13;;;;;;;;;;4985874;28;20437;-75
2023/03/11 13:12:28;;;;;;;5.18;1.15;;;;;;;;;;4988487;28;20038;-75
2023/03/11 13:15:17;;;;;;;3.70;1.17;;;;;;;;;;4987006;28;20080;-76
2023/03/11 13:18:11;;;;;;;2.83;0.95;;;;;;;;;;4994270;28;20033;-75
2023/03/11 13:20:57;;;;;;;3.00;1.10;;;;;;;;;;4983613;28;20068;-75
2023/03/11 13:23:42;;;;;;;2.13;1.20;;;;;;;;;;4984677;28;20053;-75
2023/03/11 13:26:30;;;;;;;4.30;1.52;;;;;;;;;;4987241;28;20143;-76
2023/03/11 13:29:27;;;;;;;3.28;1.17;;;;;;;;;;5014734;28;20029;-75
2023/03/11 13:32:31;;;;;;;3.45;1.20;;;;;;;;;;4999615;28;20033;-75
2023/03/11 13:35:49;;;;;;;2.15;1.00;;;;;;;;;;5000773;28;20107;-74
2023/03/11 13:38:40;;;;;;;3.45;1.30;;;;;;;;;;4971471;28;20053;-76
2023/03/11 13:41:29;;;;;;;3.60;1.27;;;;;;;;;;4983768;28;20046;-76
2023/03/11 13:44:18;;;;;;;3.08;1.27;;;;;;;;;;4985053;28;20085;-76
2023/03/11 13:47:06;;;;;;;5.38;2.13;;;;;;;;;;4992914;28;20037;-73
2023/03/11 13:49:51;;;;;;;3.20;1.50;;;;;;;;;;5003358;28;20113;-73
2023/03/11 13:52:47;;;;;;;4.85;1.30;;;;;;;;;;4993426;28;20182;-72
2023/03/11 13:55:34;;;;;;;2.20;1.05;;;;;;;;;;4983704;28;20034;-73
2023/03/11 13:58:25;;;;;;;3.03;1.63;;;;;;;;;;4999132;28;20416;-72
2023/03/11 14:01:14;;;;;;;2.67;1.25;;;;;;;;;;5011286;28;20481;-71
2023/03/11 14:03:59;;;;;;;2.38;1.00;;;;;;;;;;4985995;28;20130;-76
2023/03/11 14:06:45;;;;;;;6.15;1.52;;;;;;;;;;4981920;28;20034;-73
2023/03/11 14:09:30;;;;;;;2.78;0.95;;;;;;;;;;4993266;28;20046;-75
2023/03/11 14:12:16;;;;;;;3.65;1.38;;;;;;;;;;4996182;28;20029;-73
2023/03/11 14:15:03;;;;;;;3.67;1.33;;;;;;;;;;5011191;28;20036;-73
2023/03/11 14:17:52;;;;;;;5.95;1.10;;;;;;;;;;5004601;28;20132;-73
2023/03/11 14:20:38;;;;;;;4.57;1.52;;;;;;;;;;4996377;28;20018;-74
2023/03/11 14:23:25;;;;;;;3.28;1.40;;;;;;;;;;4993564;28;20068;-76
2023/03/11 14:26:12;;;;;;;3.70;1.33;;;;;;;;;;4993863;28;20026;-75
2023/03/11 14:28:59;;;;;;;4.97;1.33;;;;;;;;;;5003031;28;20397;-77
2023/03/11 14:31:46;;;;;;;4.00;1.95;;;;;;;;;;4995264;28;20484;-75
2023/03/11 14:34:38;;;;;;;4.15;1.80;;;;;;;;;;4992588;28;20042;-76
2023/03/11 14:37:33;;;;;;;2.05;0.98;;;;;;;;;;4996415;28;20041;-76
2023/03/11 14:40:29;;;;;;;2.85;1.20;;;;;;;;;;4986704;28;20030;-75
2023/03/11 14:43:14;;;;;;;3.70;1.20;;;;;;;;;;4976809;28;20042;-76
2023/03/11 14:45:59;;;;;;;7.47;1.30;;;;;;;;;;4995613;28;20523;-78
2023/03/11 14:48:45;;;;;;;3.78;1.55;;;;;;;;;;4986086;28;20616;-76
2023/03/11 14:51:32;;;;;;;2.17;1.15;;;;;;;;;;5008689;28;20493;-76
2023/03/11 14:54:23;;;;;;;5.13;1.50;;;;;;;;;;5008921;28;20034;-76
2023/03/11 14:57:21;;;;;;;6.13;1.98;;;;;;;;;;5018936;28;20030;-76
2023/03/11 15:00:14;;;;;;;4.25;1.65;;;;;;;;;;4984732;28;20190;-74
2023/03/11 15:03:02;;;;;;;4.10;1.25;;;;;;;;;;4998340;28;20053;-73
2023/03/11 15:05:53;;;;;;;5.00;1.77;;;;;;;;;;5005727;28;20665;-74
2023/03/11 15:08:46;;;;;;;4.15;1.55;;;;;;;;;;4984783;28;20041;-75
2023/03/11 15:11:42;;;;;;;11.20;1.77;;;;;;;;;;4965005;28;20034;-75
2023/03/11 15:14:32;;;;;;;4.40;1.55;;;;;;;;;;4980929;28;20524;-74
2023/03/11 15:17:17;;;;;;;;;;;;;;;;;;5007662;28;20038;-72
2023/03/11 15:20:06;;;;;;;5.25;1.42;;;;;;;;;;4993457;28;20254;-76
2023/03/11 15:22:57;;;;;;;2.05;1.10;;;;;;;;;;4979643;28;20037;-74
2023/03/11 15:25:47;;;;;;;4.55;1.70;;;;;;;;;;4996250;28;20044;-75
2023/03/11 15:28:35;;;;;;;4.18;1.75;;;;;;;;;;4980924;28;20088;-76
2023/03/11 15:31:20;;;;;;;4.30;1.38;;;;;;;;;;4929377;29;20563;-75
2023/03/11 15:34:08;;;;;;;4.50;1.42;;;;;;;;;;4953404;28;20449;-73
2023/03/11 15:36:55;;;;;;;3.33;1.20;;;;;;;;;;4947809;28;20609;-76
2023/03/11 15:39:42;;;;;;;3.28;1.40;;;;;;;;;;4922024;29;20221;-72
2023/03/11 15:42:28;;;;;;;5.97;1.98;;;;;;;;;;4934826;29;20035;-75
2023/03/11 15:45:15;;;;;;;3.58;1.33;;;;;;;;;;4949354;28;20034;-75
2023/03/11 15:48:00;;;;;;;8.32;1.75;;;;;;;;;;4945566;29;20031;-75
2023/03/11 15:50:49;;;;;;;2.95;1.45;;;;;;;;;;4945634;28;20491;-74
2023/03/11 15:53:35;;;;;;;6.60;1.50;;;;;;;;;;4946106;29;20042;-73
2023/03/11 15:56:22;;;;;;;4.50;1.27;;;;;;;;;;4934517;29;20039;-73
2023/03/11 15:59:14;;;;;;;2.83;1.48;;;;;;;;;;4930717;28;20131;-74
2023/03/11 16:02:00;;;;;;;4.70;1.75;;;;;;;;;;4962384;28;20177;-74
2023/03/11 16:04:45;;;;;;;6.22;2.28;;;;;;;;;;5001281;28;20254;-74
2023/03/11 16:07:30;;;;;;;5.35;1.65;;;;;;;;;;4986971;28;20120;-74
2023/03/11 16:10:17;;;;;;;6.13;1.20;;;;;;;;;;4993764;28;20558;-72
2023/03/11 16:13:02;;;;;;;4.30;1.45;;;;;;;;;;4987218;28;20140;-74
2023/03/11 16:15:47;;;;;;;8.48;1.77;;;;;;;;;;4993502;28;20026;-73
2023/03/11 16:18:34;;;;;;;2.30;1.27;;;;;;;;;;4980617;28;20112;-75
2023/03/11 16:21:20;;;;;;;3.22;2.05;;;;;;;;;;4994508;28;20033;-75
2023/03/11 16:24:06;;;;;;;4.93;1.60;;;;;;;;;;4975296;28;20198;-74
2023/03/11 16:26:52;;;;;;;4.07;1.63;;;;;;;;;;4996600;28;20061;-73
2023/03/11 16:29:37;;;;;;;3.70;1.50;;;;;;;;;;4979240;28;20040;-73
2023/03/11 16:32:23;;;;;;;6.93;1.58;;;;;;;;;;4994221;28;20388;-74
2023/03/11 16:35:09;;;;;;;4.95;1.33;;;;;;;;;;4993523;28;20513;-74
2023/03/11 16:37:55;;;;;;;2.95;1.35;;;;;;;;;;4987754;28;20061;-75
2023/03/11 16:40:40;;;;;;;3.00;1.25;;;;;;;;;;4991572;28;20034;-75
2023/03/11 16:43:26;;;;;;;3.72;1.25;;;;;;;;;;4991581;28;20386;-75